createdAt,value
2023-01-25T00:04:38.932Z,3.16
2023-01-25T00:14:41.085Z,2.86
2023-01-25T00:24:44.212Z,2.49
2023-01-25T00:34:47.763Z,2.30
2023-01-25T00:44:49.964Z,2.95
2023-01-25T00:54:52.062Z,3.15
2023-01-25T01:04:56.550Z,2.92
2023-01-25T01:14:59.901Z,3.17
2023-01-25T01:25:02.200Z,2.82
2023-01-25T01:35:04.531Z,3.35
2023-01-25T01:45:44.012Z,3.16
2023-01-25T01:55:49.694Z,2.75
2023-01-25T02:06:01.509Z,2.62
2023-01-25T02:16:05.024Z,2.56
2023-01-25T02:26:07.477Z,2.20
2023-01-25T02:36:10.235Z,2.25
2023-01-25T02:46:28.902Z,2.29
2023-01-25T02:56:32.378Z,2.36
2023-01-25T03:06:35.954Z,2.17
2023-01-25T03:16:38.450Z,2.03
2023-01-25T03:27:01.503Z,3.01
2023-01-25T03:37:31.218Z,2.42
2023-01-25T03:47:34.361Z,2.49
2023-01-25T03:57:37.819Z,2.03
2023-01-25T04:07:42.208Z,2.29
2023-01-25T04:17:45.468Z,2.20
2023-01-25T04:27:55.601Z,2.31
2023-01-25T04:37:59.375Z,2.43
2023-01-25T04:48:10.770Z,2.18
2023-01-25T04:58:19.509Z,1.79
2023-01-25T05:08:22.935Z,2.42
2023-01-25T05:18:42.576Z,2.27
2023-01-25T05:28:52.580Z,2.58
2023-01-25T05:39:01.677Z,2.49
2023-01-25T05:49:06.975Z,2.64
2023-01-25T05:59:11.184Z,2.33
2023-01-25T06:09:13.905Z,1.81
2023-01-25T06:19:17.148Z,2.45
2023-01-25T06:29:38.243Z,2.18
2023-01-25T06:39:40.357Z,2.54
2023-01-25T06:49:42.589Z,2.39
2023-01-25T06:59:44.779Z,2.68
2023-01-25T07:09:46.921Z,2.04
2023-01-25T07:19:49.181Z,2.33
2023-01-25T07:29:51.282Z,1.96
2023-01-25T07:39:53.435Z,1.70
2023-01-25T07:49:55.559Z,1.71
2023-01-25T07:59:57.660Z,2.15
2023-01-25T08:09:59.789Z,2.37
2023-01-25T08:20:02.191Z,2.26
2023-01-25T08:30:04.783Z,1.99
2023-01-25T08:40:07.873Z,2.71
2023-01-25T08:50:11.094Z,2.93
2023-01-25T09:00:14.285Z,2.36
2023-01-25T09:10:16.734Z,2.64
2023-01-25T09:20:18.953Z,2.41
2023-01-25T09:30:23.386Z,2.72
2023-01-25T09:40:34.340Z,2.17
2023-01-25T09:50:51.621Z,2.60
2023-01-25T10:01:05.927Z,2.30
2023-01-25T10:11:29.101Z,2.51
2023-01-25T10:21:35.445Z,1.99
2023-01-25T10:31:44.884Z,2.60
2023-01-25T10:41:51.521Z,2.04
2023-01-25T10:51:53.722Z,2.28
2023-01-25T11:01:57.326Z,1.87
2023-01-25T11:12:03.620Z,1.07
2023-01-25T11:22:19.800Z,1.71
2023-01-25T11:32:22.787Z,2.37
2023-01-25T11:42:32.484Z,1.19
2023-01-25T11:52:52.946Z,2.37
2023-01-25T12:03:08.080Z,2.59
2023-01-25T12:13:30.219Z,2.01
2023-01-25T12:23:40.058Z,2.40
2023-01-25T12:33:46.589Z,2.34
2023-01-25T12:43:52.670Z,2.60
2023-01-25T12:53:55.336Z,2.00
2023-01-25T13:04:03.524Z,1.91
2023-01-25T13:14:36.081Z,2.61
2023-01-25T13:25:03.715Z,1.94
2023-01-25T13:35:28.523Z,3.12
2023-01-25T13:45:32.925Z,2.36
2023-01-25T13:55:40.806Z,2.23
2023-01-25T14:05:50.072Z,2.96
2023-01-25T14:16:10.659Z,2.61
2023-01-25T14:26:26.481Z,2.24
2023-01-25T14:36:31.370Z,2.21
2023-01-25T14:46:35.577Z,2.51
2023-01-25T14:56:46.737Z,2.56
2023-01-25T15:06:54.312Z,1.78
2023-01-25T15:16:56.845Z,1.78
2023-01-25T15:26:59.160Z,2.54
2023-01-25T15:37:03.506Z,2.55
2023-01-25T15:47:05.783Z,2.04
2023-01-25T15:57:23.979Z,2.87
2023-01-25T16:07:28.873Z,2.23
2023-01-25T16:17:31.055Z,2.44
2023-01-25T16:27:36.028Z,1.78
2023-01-25T16:37:38.365Z,2.98
2023-01-25T16:47:40.498Z,2.69
2023-01-25T16:57:43.778Z,2.10
2023-01-25T17:07:53.199Z,1.53
2023-01-25T17:17:55.431Z,2.21
2023-01-25T17:27:57.763Z,1.90
2023-01-25T17:37:59.953Z,2.22
2023-01-25T17:48:02.324Z,1.86
2023-01-25T17:58:05.452Z,1.63
2023-01-25T18:08:07.731Z,2.17
2023-01-25T18:18:10.366Z,1.82
2023-01-25T18:28:13.562Z,2.14
2023-01-25T18:38:17.182Z,1.57
2023-01-25T18:48:30.104Z,0.75
2023-01-25T18:58:33.319Z,1.51
2023-01-25T19:08:39.513Z,0.92
2023-01-25T19:18:48.366Z,1.44
2023-01-25T19:28:51.372Z,1.78
2023-01-25T19:38:53.903Z,2.16
2023-01-25T19:48:56.639Z,1.88
2023-01-25T19:58:59.157Z,1.69
2023-01-25T20:09:02.679Z,1.89
2023-01-25T20:19:04.878Z,1.75
2023-01-25T20:29:07.718Z,2.17
2023-01-25T20:39:12.630Z,1.80
2023-01-25T20:49:17.014Z,1.21
2023-01-25T20:59:19.312Z,1.29
2023-01-25T21:09:26.122Z,1.44
2023-01-25T21:19:28.299Z,1.22
2023-01-25T21:29:30.390Z,1.45
2023-01-25T21:39:32.581Z,1.48
2023-01-25T21:49:55.728Z,0.37
2023-01-25T21:59:59.113Z,1.06
2023-01-25T22:10:02.273Z,0.45
2023-01-25T22:20:04.687Z,1.29
2023-01-25T22:30:10.656Z,1.68
2023-01-25T22:40:13.461Z,2.05
2023-01-25T22:50:16.084Z,0.83
2023-01-25T23:00:18.578Z,1.47
2023-01-25T23:10:20.685Z,0.61
2023-01-25T23:20:23.900Z,1.37
2023-01-25T23:30:27.049Z,1.64
2023-01-25T23:40:29.356Z,1.42
2023-01-25T23:50:32.463Z,1.34
